sensor_id;sensor_type;location;lat;lon;timestamp;temperature;humidity
8988;DHT22;4529;51.360;12.474;2023-07-13T00:01:45;21.10;99.90
8988;DHT22;4529;51.360;12.474;2023-07-13T00:06:49;21.10;99.90
8988;DHT22;4529;51.360;12.474;2023-07-13T00:11:54;21.00;99.90
8988;DHT22;4529;51.360;12.474;2023-07-13T00:16:58;21.00;99.90
8988;DHT22;4529;51.360;12.474;2023-07-13T00:22:02;21.10;99.90
8988;DHT22;4529;51.360;12.474;2023-07-13T00:27:06;21.10;99.90
8988;DHT22;4529;51.360;12.474;2023-07-13T00:32:10;21.10;99.90
8988;DHT22;4529;51.360;12.474;2023-07-13T00:37:14;21.10;99.90
8988;DHT22;4529;51.360;12.474;2023-07-13T00:42:18;21.20;99.90
8988;DHT22;4529;51.360;12.474;2023-07-13T00:47:22;21.00;99.90
8988;DHT22;4529;51.360;12.474;2023-07-13T00:52:27;20.90;99.90
8988;DHT22;4529;51.360;12.474;2023-07-13T00:57:31;20.90;99.90
8988;DHT22;4529;51.360;12.474;2023-07-13T01:02:38;21.00;99.90
8988;DHT22;4529;51.360;12.474;2023-07-13T01:07:41;21.00;99.90
8988;DHT22;4529;51.360;12.474;2023-07-13T01:12:44;21.10;99.90
8988;DHT22;4529;51.360;12.474;2023-07-13T01:17:48;21.30;99.90
8988;DHT22;4529;51.360;12.474;2023-07-13T01:22:51;21.40;99.90
8988;DHT22;4529;51.360;12.474;2023-07-13T01:27:55;21.40;99.90
8988;DHT22;4529;51.360;12.474;2023-07-13T01:32:58;21.40;99.90
8988;DHT22;4529;51.360;12.474;2023-07-13T01:38:02;21.30;99.90
8988;DHT22;4529;51.360;12.474;2023-07-13T01:43:05;21.30;99.90
8988;DHT22;4529;51.360;12.474;2023-07-13T01:48:08;21.30;99.90
8988;DHT22;4529;51.360;12.474;2023-07-13T01:53:12;21.30;99.90
8988;DHT22;4529;51.360;12.474;2023-07-13T01:58:15;21.20;99.90
8988;DHT22;4529;51.360;12.474;2023-07-13T02:03:19;21.10;99.90
8988;DHT22;4529;51.360;12.474;2023-07-13T02:08:22;21.10;99.90
8988;DHT22;4529;51.360;12.474;2023-07-13T02:13:26;21.10;99.90
8988;DHT22;4529;51.360;12.474;2023-07-13T02:18:29;21.10;99.90
8988;DHT22;4529;51.360;12.474;2023-07-13T02:23:33;21.00;99.90
8988;DHT22;4529;51.360;12.474;2023-07-13T02:28:36;20.90;99.90
8988;DHT22;4529;51.360;12.474;2023-07-13T02:33:40;20.90;99.90
8988;DHT22;4529;51.360;12.474;2023-07-13T02:38:44;20.80;99.90
8988;DHT22;4529;51.360;12.474;2023-07-13T02:43:48;20.80;99.90
8988;DHT22;4529;51.360;12.474;2023-07-13T02:48:52;20.70;99.90
8988;DHT22;4529;51.360;12.474;2023-07-13T02:53:56;20.60;99.90
8988;DHT22;4529;51.360;12.474;2023-07-13T02:59:00;20.40;99.90
8988;DHT22;4529;51.360;12.474;2023-07-13T03:04:04;20.40;99.90
8988;DHT22;4529;51.360;12.474;2023-07-13T03:09:07;20.30;99.90
8988;DHT22;4529;51.360;12.474;2023-07-13T03:14:11;20.10;99.90
8988;DHT22;4529;51.360;12.474;2023-07-13T03:19:15;19.90;99.90
8988;DHT22;4529;51.360;12.474;2023-07-13T03:24:18;19.80;99.90
8988;DHT22;4529;51.360;12.474;2023-07-13T03:29:21;19.60;99.90
8988;DHT22;4529;51.360;12.474;2023-07-13T03:34:25;19.50;99.90
8988;DHT22;4529;51.360;12.474;2023-07-13T03:39:28;19.50;99.90
8988;DHT22;4529;51.360;12.474;2023-07-13T03:44:32;19.40;99.90
8988;DHT22;4529;51.360;12.474;2023-07-13T03:49:35;19.40;99.90
8988;DHT22;4529;51.360;12.474;2023-07-13T03:54:39;19.20;99.90
8988;DHT22;4529;51.360;12.474;2023-07-13T03:59:43;19.30;99.90
8988;DHT22;4529;51.360;12.474;2023-07-13T04:04:48;19.20;99.90
8988;DHT22;4529;51.360;12.474;2023-07-13T04:09:52;19.20;99.90
8988;DHT22;4529;51.360;12.474;2023-07-13T04:14:56;19.00;99.90
8988;DHT22;4529;51.360;12.474;2023-07-13T04:20:00;18.80;99.90
8988;DHT22;4529;51.360;12.474;2023-07-13T04:25:04;19.00;99.90
8988;DHT22;4529;51.360;12.474;2023-07-13T04:30:08;18.90;99.90
8988;DHT22;4529;51.360;12.474;2023-07-13T04:35:11;19.00;99.90
8988;DHT22;4529;51.360;12.474;2023-07-13T04:40:15;19.10;99.90
8988;DHT22;4529;51.360;12.474;2023-07-13T04:45:18;19.20;99.90
8988;DHT22;4529;51.360;12.474;2023-07-13T04:50:22;19.40;99.90
8988;DHT22;4529;51.360;12.474;2023-07-13T04:55:25;19.60;99.90
8988;DHT22;4529;51.360;12.474;2023-07-13T05:00:29;20.10;99.90
8988;DHT22;4529;51.360;12.474;2023-07-13T05:05:33;20.00;99.90
8988;DHT22;4529;51.360;12.474;2023-07-13T05:10:36;20.20;99.90
8988;DHT22;4529;51.360;12.474;2023-07-13T05:15:40;20.60;99.90
8988;DHT22;4529;51.360;12.474;2023-07-13T05:20:44;20.80;99.90
8988;DHT22;4529;51.360;12.474;2023-07-13T05:25:49;21.10;99.90
8988;DHT22;4529;51.360;12.474;2023-07-13T05:30:53;21.30;99.90
8988;DHT22;4529;51.360;12.474;2023-07-13T05:35:57;21.60;99.90
8988;DHT22;4529;51.360;12.474;2023-07-13T05:41:01;22.00;99.90
8988;DHT22;4529;51.360;12.474;2023-07-13T05:46:05;22.10;99.90
8988;DHT22;4529;51.360;12.474;2023-07-13T05:51:09;22.50;99.90
8988;DHT22;4529;51.360;12.474;2023-07-13T05:56:13;22.80;99.90
8988;DHT22;4529;51.360;12.474;2023-07-13T06:01:17;22.80;99.90
8988;DHT22;4529;51.360;12.474;2023-07-13T06:06:22;22.90;99.90
8988;DHT22;4529;51.360;12.474;2023-07-13T06:11:26;23.00;99.90
8988;DHT22;4529;51.360;12.474;2023-07-13T06:16:30;23.10;99.90
8988;DHT22;4529;51.360;12.474;2023-07-13T06:21:34;23.00;99.90
8988;DHT22;4529;51.360;12.474;2023-07-13T06:26:37;23.00;99.90
8988;DHT22;4529;51.360;12.474;2023-07-13T06:31:41;23.30;99.90
8988;DHT22;4529;51.360;12.474;2023-07-13T06:36:44;23.50;99.90
8988;DHT22;4529;51.360;12.474;2023-07-13T06:41:48;23.70;99.90
8988;DHT22;4529;51.360;12.474;2023-07-13T06:46:51;23.90;99.90
8988;DHT22;4529;51.360;12.474;2023-07-13T06:51:55;24.10;99.90
8988;DHT22;4529;51.360;12.474;2023-07-13T06:56:58;24.30;99.90
8988;DHT22;4529;51.360;12.474;2023-07-13T07:02:02;24.20;99.90
8988;DHT22;4529;51.360;12.474;2023-07-13T07:07:05;24.30;99.90
8988;DHT22;4529;51.360;12.474;2023-07-13T07:12:09;24.50;99.90
8988;DHT22;4529;51.360;12.474;2023-07-13T07:17:12;24.60;99.90
8988;DHT22;4529;51.360;12.474;2023-07-13T07:22:16;24.90;99.90
8988;DHT22;4529;51.360;12.474;2023-07-13T07:27:19;25.20;99.90
8988;DHT22;4529;51.360;12.474;2023-07-13T07:32:23;25.30;99.90
8988;DHT22;4529;51.360;12.474;2023-07-13T07:37:26;25.20;99.90
8988;DHT22;4529;51.360;12.474;2023-07-13T07:42:29;24.80;99.90
8988;DHT22;4529;51.360;12.474;2023-07-13T07:47:34;25.20;99.90
8988;DHT22;4529;51.360;12.474;2023-07-13T07:52:38;25.50;99.90
8988;DHT22;4529;51.360;12.474;2023-07-13T07:57:42;25.60;99.90
8988;DHT22;4529;51.360;12.474;2023-07-13T08:02:46;25.40;99.90
8988;DHT22;4529;51.360;12.474;2023-07-13T08:07:50;25.10;99.90
8988;DHT22;4529;51.360;12.474;2023-07-13T08:12:54;24.90;99.90
8988;DHT22;4529;51.360;12.474;2023-07-13T08:17:58;24.80;99.90
8988;DHT22;4529;51.360;12.474;2023-07-13T08:23:02;24.90;99.90
8988;DHT22;4529;51.360;12.474;2023-07-13T08:28:07;25.10;99.90
8988;DHT22;4529;51.360;12.474;2023-07-13T08:33:10;25.20;99.90
8988;DHT22;4529;51.360;12.474;2023-07-13T08:38:14;25.50;99.90
8988;DHT22;4529;51.360;12.474;2023-07-13T08:43:18;25.50;99.90
8988;DHT22;4529;51.360;12.474;2023-07-13T08:48:27;25.60;99.90
8988;DHT22;4529;51.360;12.474;2023-07-13T08:53:40;26.70;99.90
8988;DHT22;4529;51.360;12.474;2023-07-13T08:58:43;26.60;99.90
8988;DHT22;4529;51.360;12.474;2023-07-13T09:03:56;26.50;97.90
8988;DHT22;4529;51.360;12.474;2023-07-13T09:09:04;25.70;98.10
8988;DHT22;4529;51.360;12.474;2023-07-13T09:14:36;25.70;99.30
8988;DHT22;4529;51.360;12.474;2023-07-13T09:19:37;25.70;99.40
8988;DHT22;4529;51.360;12.474;2023-07-13T09:24:57;26.10;98.60
8988;DHT22;4529;51.360;12.474;2023-07-13T09:35:22;26.50;95.60
8988;DHT22;4529;51.360;12.474;2023-07-13T09:40:49;26.40;96.70
8988;DHT22;4529;51.360;12.474;2023-07-13T09:45:48;26.70;97.70
8988;DHT22;4529;51.360;12.474;2023-07-13T09:50:55;26.80;93.40
8988;DHT22;4529;51.360;12.474;2023-07-13T09:55:55;26.70;93.30
8988;DHT22;4529;51.360;12.474;2023-07-13T10:01:00;26.30;93.70
8988;DHT22;4529;51.360;12.474;2023-07-13T10:06:12;26.30;97.60
8988;DHT22;4529;51.360;12.474;2023-07-13T10:11:27;26.80;97.40
8988;DHT22;4529;51.360;12.474;2023-07-13T10:16:31;26.60;95.30
8988;DHT22;4529;51.360;12.474;2023-07-13T10:21:38;26.40;95.20
8988;DHT22;4529;51.360;12.474;2023-07-13T10:26:41;26.10;94.20
8988;DHT22;4529;51.360;12.474;2023-07-13T10:31:44;26.30;96.30
8988;DHT22;4529;51.360;12.474;2023-07-13T10:36:47;26.70;96.40
8988;DHT22;4529;51.360;12.474;2023-07-13T10:41:59;26.90;95.00
8988;DHT22;4529;51.360;12.474;2023-07-13T10:47:06;26.80;94.20
8988;DHT22;4529;51.360;12.474;2023-07-13T10:52:49;26.80;94.10
8988;DHT22;4529;51.360;12.474;2023-07-13T10:57:52;27.30;92.60
8988;DHT22;4529;51.360;12.474;2023-07-13T11:02:58;26.80;95.30
8988;DHT22;4529;51.360;12.474;2023-07-13T11:08:19;27.20;91.70
8988;DHT22;4529;51.360;12.474;2023-07-13T11:24:16;27.50;87.90
8988;DHT22;4529;51.360;12.474;2023-07-13T11:29:36;27.60;80.30
8988;DHT22;4529;51.360;12.474;2023-07-13T11:34:38;27.60;78.00
8988;DHT22;4529;51.360;12.474;2023-07-13T11:39:41;27.80;79.60
8988;DHT22;4529;51.360;12.474;2023-07-13T11:44:48;27.50;80.00
8988;DHT22;4529;51.360;12.474;2023-07-13T11:49:52;27.60;75.90
8988;DHT22;4529;51.360;12.474;2023-07-13T11:54:55;27.60;75.00
8988;DHT22;4529;51.360;12.474;2023-07-13T12:00:09;27.40;75.60
8988;DHT22;4529;51.360;12.474;2023-07-13T12:05:05;27.40;75.50
8988;DHT22;4529;51.360;12.474;2023-07-13T12:15:12;27.10;75.60
8988;DHT22;4529;51.360;12.474;2023-07-13T12:20:23;27.30;78.80
8988;DHT22;4529;51.360;12.474;2023-07-13T12:25:25;27.50;71.80
8988;DHT22;4529;51.360;12.474;2023-07-13T12:30:30;27.90;73.60
8988;DHT22;4529;51.360;12.474;2023-07-13T12:35:38;27.90;73.80
8988;DHT22;4529;51.360;12.474;2023-07-13T12:40:36;27.80;71.90
8988;DHT22;4529;51.360;12.474;2023-07-13T12:45:40;27.80;74.20
8988;DHT22;4529;51.360;12.474;2023-07-13T12:50:46;27.80;76.10
8988;DHT22;4529;51.360;12.474;2023-07-13T12:55:53;27.60;73.00
8988;DHT22;4529;51.360;12.474;2023-07-13T13:01:00;27.60;73.50
8988;DHT22;4529;51.360;12.474;2023-07-13T13:06:17;27.60;73.50
8988;DHT22;4529;51.360;12.474;2023-07-13T13:11:09;27.40;74.40
8988;DHT22;4529;51.360;12.474;2023-07-13T13:16:20;27.40;73.90
8988;DHT22;4529;51.360;12.474;2023-07-13T13:21:23;27.60;70.50
8988;DHT22;4529;51.360;12.474;2023-07-13T13:26:25;27.60;72.00
8988;DHT22;4529;51.360;12.474;2023-07-13T13:31:29;27.60;73.10
8988;DHT22;4529;51.360;12.474;2023-07-13T13:36:32;27.60;68.40
8988;DHT22;4529;51.360;12.474;2023-07-13T13:41:36;27.40;70.70
8988;DHT22;4529;51.360;12.474;2023-07-13T13:46:39;27.50;69.20
8988;DHT22;4529;51.360;12.474;2023-07-13T13:51:43;27.40;69.60
8988;DHT22;4529;51.360;12.474;2023-07-13T13:56:49;27.40;71.00
8988;DHT22;4529;51.360;12.474;2023-07-13T14:01:53;27.30;70.70
8988;DHT22;4529;51.360;12.474;2023-07-13T14:06:57;27.20;72.60
8988;DHT22;4529;51.360;12.474;2023-07-13T14:12:01;27.50;71.10
8988;DHT22;4529;51.360;12.474;2023-07-13T14:17:10;27.40;70.90
8988;DHT22;4529;51.360;12.474;2023-07-13T14:22:09;27.40;69.80
8988;DHT22;4529;51.360;12.474;2023-07-13T14:27:14;27.30;72.20
8988;DHT22;4529;51.360;12.474;2023-07-13T14:32:17;27.30;72.10
8988;DHT22;4529;51.360;12.474;2023-07-13T14:37:21;27.20;71.50
8988;DHT22;4529;51.360;12.474;2023-07-13T14:42:24;27.10;67.00
8988;DHT22;4529;51.360;12.474;2023-07-13T14:47:27;27.30;69.50
8988;DHT22;4529;51.360;12.474;2023-07-13T14:52:32;27.10;67.80
8988;DHT22;4529;51.360;12.474;2023-07-13T14:57:35;26.80;70.10
8988;DHT22;4529;51.360;12.474;2023-07-13T15:02:39;26.70;70.20
8988;DHT22;4529;51.360;12.474;2023-07-13T15:07:42;26.70;68.30
8988;DHT22;4529;51.360;12.474;2023-07-13T15:12:46;26.70;68.80
8988;DHT22;4529;51.360;12.474;2023-07-13T15:17:49;26.70;70.20
8988;DHT22;4529;51.360;12.474;2023-07-13T15:22:53;26.70;68.70
8988;DHT22;4529;51.360;12.474;2023-07-13T15:27:57;26.60;69.20
8988;DHT22;4529;51.360;12.474;2023-07-13T15:33:01;26.50;68.60
8988;DHT22;4529;51.360;12.474;2023-07-13T15:38:13;26.50;68.20
8988;DHT22;4529;51.360;12.474;2023-07-13T15:43:14;26.60;69.00
8988;DHT22;4529;51.360;12.474;2023-07-13T15:48:22;26.50;67.40
8988;DHT22;4529;51.360;12.474;2023-07-13T15:53:26;26.60;67.40
8988;DHT22;4529;51.360;12.474;2023-07-13T15:58:28;26.50;70.50
8988;DHT22;4529;51.360;12.474;2023-07-13T16:03:31;26.50;69.80
8988;DHT22;4529;51.360;12.474;2023-07-13T16:08:35;26.50;69.80
8988;DHT22;4529;51.360;12.474;2023-07-13T16:13:38;26.50;71.50
8988;DHT22;4529;51.360;12.474;2023-07-13T16:18:42;26.40;71.70
8988;DHT22;4529;51.360;12.474;2023-07-13T16:23:45;26.40;68.40
8988;DHT22;4529;51.360;12.474;2023-07-13T16:28:49;26.40;66.80
8988;DHT22;4529;51.360;12.474;2023-07-13T16:33:52;26.40;68.00
8988;DHT22;4529;51.360;12.474;2023-07-13T16:38:56;26.40;69.90
8988;DHT22;4529;51.360;12.474;2023-07-13T16:43:59;26.20;72.60
8988;DHT22;4529;51.360;12.474;2023-07-13T16:49:09;26.00;72.10
8988;DHT22;4529;51.360;12.474;2023-07-13T16:54:08;26.00;72.10
8988;DHT22;4529;51.360;12.474;2023-07-13T16:59:15;26.00;73.50
8988;DHT22;4529;51.360;12.474;2023-07-13T17:04:18;26.00;73.50
8988;DHT22;4529;51.360;12.474;2023-07-13T17:09:22;25.90;72.80
8988;DHT22;4529;51.360;12.474;2023-07-13T17:14:25;25.80;75.00
8988;DHT22;4529;51.360;12.474;2023-07-13T17:19:29;25.80;72.20
8988;DHT22;4529;51.360;12.474;2023-07-13T17:24:32;25.80;73.10
8988;DHT22;4529;51.360;12.474;2023-07-13T17:29:35;25.80;74.40
8988;DHT22;4529;51.360;12.474;2023-07-13T17:34:40;25.60;75.00
8988;DHT22;4529;51.360;12.474;2023-07-13T17:39:44;25.60;75.00
8988;DHT22;4529;51.360;12.474;2023-07-13T17:44:47;25.60;74.20
8988;DHT22;4529;51.360;12.474;2023-07-13T17:49:51;25.60;74.20
8988;DHT22;4529;51.360;12.474;2023-07-13T17:54:54;25.60;76.10
8988;DHT22;4529;51.360;12.474;2023-07-13T17:59:57;25.50;79.50
8988;DHT22;4529;51.360;12.474;2023-07-13T18:05:01;25.10;87.00
8988;DHT22;4529;51.360;12.474;2023-07-13T18:10:11;24.60;88.60
8988;DHT22;4529;51.360;12.474;2023-07-13T18:15:12;24.60;88.60
8988;DHT22;4529;51.360;12.474;2023-07-13T18:20:14;24.60;84.70
8988;DHT22;4529;51.360;12.474;2023-07-13T18:25:20;24.60;85.10
8988;DHT22;4529;51.360;12.474;2023-07-13T18:30:22;24.70;85.10
8988;DHT22;4529;51.360;12.474;2023-07-13T18:35:29;24.60;86.30
8988;DHT22;4529;51.360;12.474;2023-07-13T18:40:32;24.40;84.50
8988;DHT22;4529;51.360;12.474;2023-07-13T18:45:36;24.20;85.70
8988;DHT22;4529;51.360;12.474;2023-07-13T18:50:40;24.10;85.90
8988;DHT22;4529;51.360;12.474;2023-07-13T18:55:45;24.00;88.30
8988;DHT22;4529;51.360;12.474;2023-07-13T19:00:51;24.00;88.20
8988;DHT22;4529;51.360;12.474;2023-07-13T19:05:55;23.20;92.30
8988;DHT22;4529;51.360;12.474;2023-07-13T19:10:59;22.80;93.90
8988;DHT22;4529;51.360;12.474;2023-07-13T19:16:03;22.50;96.40
8988;DHT22;4529;51.360;12.474;2023-07-13T19:21:20;22.30;98.50
8988;DHT22;4529;51.360;12.474;2023-07-13T19:26:24;22.30;98.50
8988;DHT22;4529;51.360;12.474;2023-07-13T19:31:27;22.10;99.90
8988;DHT22;4529;51.360;12.474;2023-07-13T19:36:29;21.90;99.90
8988;DHT22;4529;51.360;12.474;2023-07-13T19:41:34;21.80;99.90
8988;DHT22;4529;51.360;12.474;2023-07-13T19:46:36;21.70;99.90
8988;DHT22;4529;51.360;12.474;2023-07-13T19:51:39;21.70;99.90
8988;DHT22;4529;51.360;12.474;2023-07-13T19:56:43;21.50;99.90
8988;DHT22;4529;51.360;12.474;2023-07-13T20:01:46;21.50;99.90
8988;DHT22;4529;51.360;12.474;2023-07-13T20:06:50;21.40;99.90
8988;DHT22;4529;51.360;12.474;2023-07-13T20:11:53;21.30;99.90
8988;DHT22;4529;51.360;12.474;2023-07-13T20:17:00;21.30;99.90
8988;DHT22;4529;51.360;12.474;2023-07-13T20:22:03;21.20;99.90
8988;DHT22;4529;51.360;12.474;2023-07-13T20:27:07;21.10;99.90
8988;DHT22;4529;51.360;12.474;2023-07-13T20:32:10;21.00;99.90
8988;DHT22;4529;51.360;12.474;2023-07-13T20:37:29;21.00;99.90
8988;DHT22;4529;51.360;12.474;2023-07-13T20:42:29;20.90;99.90
8988;DHT22;4529;51.360;12.474;2023-07-13T20:47:32;20.90;99.90
8988;DHT22;4529;51.360;12.474;2023-07-13T20:52:36;20.80;99.90
8988;DHT22;4529;51.360;12.474;2023-07-13T20:57:39;20.70;99.90
8988;DHT22;4529;51.360;12.474;2023-07-13T21:02:43;20.60;99.90
8988;DHT22;4529;51.360;12.474;2023-07-13T21:07:47;20.50;99.90
8988;DHT22;4529;51.360;12.474;2023-07-13T21:12:50;20.50;99.90
8988;DHT22;4529;51.360;12.474;2023-07-13T21:17:54;20.30;99.90
8988;DHT22;4529;51.360;12.474;2023-07-13T21:22:57;20.20;99.90
8988;DHT22;4529;51.360;12.474;2023-07-13T21:28:00;20.00;99.90
8988;DHT22;4529;51.360;12.474;2023-07-13T21:33:04;19.90;99.90
8988;DHT22;4529;51.360;12.474;2023-07-13T21:43:17;19.70;99.90
8988;DHT22;4529;51.360;12.474;2023-07-13T21:48:20;19.60;99.90
8988;DHT22;4529;51.360;12.474;2023-07-13T21:53:30;19.40;99.90
8988;DHT22;4529;51.360;12.474;2023-07-13T21:58:34;19.30;99.90
8988;DHT22;4529;51.360;12.474;2023-07-13T22:03:38;19.20;99.90
8988;DHT22;4529;51.360;12.474;2023-07-13T22:08:42;19.10;99.90
8988;DHT22;4529;51.360;12.474;2023-07-13T22:13:45;19.10;99.90
8988;DHT22;4529;51.360;12.474;2023-07-13T22:18:49;19.20;99.90
8988;DHT22;4529;51.360;12.474;2023-07-13T22:23:52;19.00;99.90
8988;DHT22;4529;51.360;12.474;2023-07-13T22:28:57;18.80;99.90
8988;DHT22;4529;51.360;12.474;2023-07-13T22:33:59;18.60;99.90
8988;DHT22;4529;51.360;12.474;2023-07-13T22:39:03;18.40;99.90
8988;DHT22;4529;51.360;12.474;2023-07-13T22:44:17;18.20;99.90
8988;DHT22;4529;51.360;12.474;2023-07-13T22:49:19;18.20;99.90
8988;DHT22;4529;51.360;12.474;2023-07-13T22:54:21;18.00;99.90
8988;DHT22;4529;51.360;12.474;2023-07-13T22:59:25;18.00;99.90
8988;DHT22;4529;51.360;12.474;2023-07-13T23:04:29;17.90;99.90
8988;DHT22;4529;51.360;12.474;2023-07-13T23:09:32;17.80;99.90
8988;DHT22;4529;51.360;12.474;2023-07-13T23:14:35;17.70;99.90
8988;DHT22;4529;51.360;12.474;2023-07-13T23:19:39;17.60;99.90
8988;DHT22;4529;51.360;12.474;2023-07-13T23:24:42;17.50;99.90
8988;DHT22;4529;51.360;12.474;2023-07-13T23:29:46;17.40;99.90
8988;DHT22;4529;51.360;12.474;2023-07-13T23:34:49;17.30;99.90
8988;DHT22;4529;51.360;12.474;2023-07-13T23:39:53;17.30;99.90
8988;DHT22;4529;51.360;12.474;2023-07-13T23:44:56;17.10;99.90
8988;DHT22;4529;51.360;12.474;2023-07-13T23:50:00;17.10;99.90
8988;DHT22;4529;51.360;12.474;2023-07-13T23:55:19;17.10;99.90
